sensor_id;sensor_type;location;lat;lon;timestamp;P1;durP1;ratioP1;P2;durP2;ratioP2
14272;SDS011;7220;49.450;11.052;2023-07-31T00:01:27;4.50;;;1.90;;
14272;SDS011;7220;49.450;11.052;2023-07-31T00:05:28;6.07;;;2.87;;
14272;SDS011;7220;49.450;11.052;2023-07-31T00:09:28;4.87;;;1.97;;
14272;SDS011;7220;49.450;11.052;2023-07-31T00:13:28;4.05;;;1.95;;
14272;SDS011;7220;49.450;11.052;2023-07-31T00:17:29;5.55;;;2.20;;
14272;SDS011;7220;49.450;11.052;2023-07-31T00:21:29;6.75;;;2.65;;
14272;SDS011;7220;49.450;11.052;2023-07-31T00:25:29;2.60;;;2.10;;
14272;SDS011;7220;49.450;11.052;2023-07-31T00:29:30;3.25;;;2.03;;
14272;SDS011;7220;49.450;11.052;2023-07-31T00:33:31;3.63;;;2.10;;
14272;SDS011;7220;49.450;11.052;2023-07-31T00:37:31;3.05;;;2.10;;
14272;SDS011;7220;49.450;11.052;2023-07-31T00:41:32;3.35;;;1.80;;
14272;SDS011;7220;49.450;11.052;2023-07-31T00:45:32;3.75;;;1.90;;
14272;SDS011;7220;49.450;11.052;2023-07-31T00:49:33;3.80;;;2.10;;
14272;SDS011;7220;49.450;11.052;2023-07-31T00:53:33;3.28;;;2.28;;
14272;SDS011;7220;49.450;11.052;2023-07-31T00:57:34;5.88;;;2.15;;
14272;SDS011;7220;49.450;11.052;2023-07-31T01:01:36;3.47;;;1.83;;
14272;SDS011;7220;49.450;11.052;2023-07-31T01:10:23;3.45;;;1.98;;
14272;SDS011;7220;49.450;11.052;2023-07-31T01:14:26;2.65;;;1.83;;
14272;SDS011;7220;49.450;11.052;2023-07-31T01:18:26;4.20;;;2.00;;
14272;SDS011;7220;49.450;11.052;2023-07-31T01:22:30;3.00;;;1.77;;
14272;SDS011;7220;49.450;11.052;2023-07-31T01:26:57;4.93;;;1.83;;
14272;SDS011;7220;49.450;11.052;2023-07-31T01:31:04;5.45;;;2.05;;
14272;SDS011;7220;49.450;11.052;2023-07-31T01:35:08;3.63;;;1.80;;
14272;SDS011;7220;49.450;11.052;2023-07-31T01:39:09;2.35;;;1.70;;
14272;SDS011;7220;49.450;11.052;2023-07-31T01:43:09;4.97;;;2.27;;
14272;SDS011;7220;49.450;11.052;2023-07-31T01:47:09;3.65;;;1.77;;
14272;SDS011;7220;49.450;11.052;2023-07-31T01:51:09;7.70;;;2.20;;
14272;SDS011;7220;49.450;11.052;2023-07-31T01:55:10;3.77;;;1.90;;
14272;SDS011;7220;49.450;11.052;2023-07-31T01:59:10;4.57;;;2.05;;
14272;SDS011;7220;49.450;11.052;2023-07-31T02:03:10;3.87;;;2.20;;
14272;SDS011;7220;49.450;11.052;2023-07-31T02:07:11;2.75;;;2.00;;
14272;SDS011;7220;49.450;11.052;2023-07-31T02:11:11;3.70;;;2.15;;
14272;SDS011;7220;49.450;11.052;2023-07-31T02:15:11;3.93;;;2.20;;
14272;SDS011;7220;49.450;11.052;2023-07-31T02:19:12;3.15;;;1.73;;
14272;SDS011;7220;49.450;11.052;2023-07-31T02:23:12;4.63;;;2.05;;
14272;SDS011;7220;49.450;11.052;2023-07-31T02:27:12;5.13;;;2.07;;
14272;SDS011;7220;49.450;11.052;2023-07-31T02:31:13;3.53;;;2.47;;
14272;SDS011;7220;49.450;11.052;2023-07-31T02:35:13;6.15;;;2.03;;
14272;SDS011;7220;49.450;11.052;2023-07-31T02:39:15;6.60;;;2.80;;
14272;SDS011;7220;49.450;11.052;2023-07-31T02:43:15;3.75;;;2.10;;
14272;SDS011;7220;49.450;11.052;2023-07-31T02:47:16;4.55;;;2.20;;
14272;SDS011;7220;49.450;11.052;2023-07-31T02:51:16;7.05;;;2.53;;
14272;SDS011;7220;49.450;11.052;2023-07-31T02:55:16;5.55;;;2.58;;
14272;SDS011;7220;49.450;11.052;2023-07-31T02:59:17;4.07;;;2.30;;
14272;SDS011;7220;49.450;11.052;2023-07-31T03:03:18;3.45;;;2.00;;
14272;SDS011;7220;49.450;11.052;2023-07-31T03:07:18;2.80;;;2.40;;
14272;SDS011;7220;49.450;11.052;2023-07-31T03:11:19;3.50;;;2.05;;
14272;SDS011;7220;49.450;11.052;2023-07-31T03:15:19;2.88;;;2.10;;
14272;SDS011;7220;49.450;11.052;2023-07-31T03:19:19;5.87;;;2.17;;
14272;SDS011;7220;49.450;11.052;2023-07-31T03:23:20;5.40;;;2.53;;
14272;SDS011;7220;49.450;11.052;2023-07-31T03:27:20;4.03;;;2.20;;
14272;SDS011;7220;49.450;11.052;2023-07-31T03:31:20;6.85;;;2.85;;
14272;SDS011;7220;49.450;11.052;2023-07-31T03:35:20;3.63;;;2.47;;
14272;SDS011;7220;49.450;11.052;2023-07-31T03:39:21;5.13;;;2.60;;
14272;SDS011;7220;49.450;11.052;2023-07-31T03:43:21;5.15;;;1.98;;
14272;SDS011;7220;49.450;11.052;2023-07-31T03:47:22;4.53;;;2.55;;
14272;SDS011;7220;49.450;11.052;2023-07-31T03:51:22;4.57;;;2.30;;
14272;SDS011;7220;49.450;11.052;2023-07-31T03:55:22;3.95;;;2.25;;
14272;SDS011;7220;49.450;11.052;2023-07-31T03:59:23;3.75;;;2.40;;
14272;SDS011;7220;49.450;11.052;2023-07-31T04:03:23;6.67;;;2.30;;
14272;SDS011;7220;49.450;11.052;2023-07-31T04:07:23;3.50;;;2.35;;
14272;SDS011;7220;49.450;11.052;2023-07-31T04:11:24;4.20;;;2.60;;
14272;SDS011;7220;49.450;11.052;2023-07-31T04:15:24;4.22;;;2.28;;
14272;SDS011;7220;49.450;11.052;2023-07-31T04:19:24;2.35;;;2.08;;
14272;SDS011;7220;49.450;11.052;2023-07-31T04:23:25;4.07;;;2.30;;
14272;SDS011;7220;49.450;11.052;2023-07-31T04:27:25;4.10;;;2.17;;
14272;SDS011;7220;49.450;11.052;2023-07-31T04:31:26;5.82;;;2.47;;
14272;SDS011;7220;49.450;11.052;2023-07-31T04:35:26;5.80;;;2.40;;
14272;SDS011;7220;49.450;11.052;2023-07-31T04:39:27;3.72;;;2.30;;
14272;SDS011;7220;49.450;11.052;2023-07-31T04:43:27;4.60;;;2.70;;
14272;SDS011;7220;49.450;11.052;2023-07-31T04:47:27;4.60;;;2.50;;
14272;SDS011;7220;49.450;11.052;2023-07-31T04:51:28;6.72;;;2.63;;
14272;SDS011;7220;49.450;11.052;2023-07-31T04:55:28;5.67;;;2.63;;
14272;SDS011;7220;49.450;11.052;2023-07-31T04:59:28;6.47;;;2.40;;
14272;SDS011;7220;49.450;11.052;2023-07-31T05:03:29;6.22;;;2.80;;
14272;SDS011;7220;49.450;11.052;2023-07-31T05:07:29;6.53;;;2.60;;
14272;SDS011;7220;49.450;11.052;2023-07-31T05:11:30;2.30;;;2.07;;
14272;SDS011;7220;49.450;11.052;2023-07-31T05:15:30;2.75;;;2.45;;
14272;SDS011;7220;49.450;11.052;2023-07-31T05:19:30;6.28;;;2.78;;
14272;SDS011;7220;49.450;11.052;2023-07-31T05:23:31;5.90;;;2.40;;
14272;SDS011;7220;49.450;11.052;2023-07-31T05:27:33;3.38;;;2.40;;
14272;SDS011;7220;49.450;11.052;2023-07-31T05:31:33;5.78;;;3.03;;
14272;SDS011;7220;49.450;11.052;2023-07-31T05:35:33;4.80;;;2.47;;
14272;SDS011;7220;49.450;11.052;2023-07-31T05:39:33;6.55;;;2.72;;
14272;SDS011;7220;49.450;11.052;2023-07-31T05:43:34;4.90;;;2.53;;
14272;SDS011;7220;49.450;11.052;2023-07-31T05:47:34;3.63;;;3.13;;
14272;SDS011;7220;49.450;11.052;2023-07-31T05:51:34;4.00;;;2.33;;
14272;SDS011;7220;49.450;11.052;2023-07-31T05:55:35;3.08;;;2.22;;
14272;SDS011;7220;49.450;11.052;2023-07-31T05:59:35;4.10;;;2.60;;
14272;SDS011;7220;49.450;11.052;2023-07-31T06:03:36;5.43;;;2.42;;
14272;SDS011;7220;49.450;11.052;2023-07-31T06:07:36;9.95;;;3.22;;
14272;SDS011;7220;49.450;11.052;2023-07-31T06:11:36;5.67;;;2.80;;
14272;SDS011;7220;49.450;11.052;2023-07-31T06:15:37;5.03;;;2.70;;
14272;SDS011;7220;49.450;11.052;2023-07-31T06:19:37;5.50;;;2.63;;
14272;SDS011;7220;49.450;11.052;2023-07-31T06:23:37;17.50;;;3.47;;
14272;SDS011;7220;49.450;11.052;2023-07-31T06:27:38;10.83;;;2.87;;
14272;SDS011;7220;49.450;11.052;2023-07-31T06:31:38;19.60;;;3.90;;
14272;SDS011;7220;49.450;11.052;2023-07-31T06:35:38;15.55;;;3.35;;
14272;SDS011;7220;49.450;11.052;2023-07-31T06:39:39;7.40;;;3.25;;
14272;SDS011;7220;49.450;11.052;2023-07-31T06:43:39;8.23;;;3.27;;
14272;SDS011;7220;49.450;11.052;2023-07-31T06:47:39;20.65;;;4.15;;
14272;SDS011;7220;49.450;11.052;2023-07-31T06:51:39;10.25;;;3.13;;
14272;SDS011;7220;49.450;11.052;2023-07-31T06:55:40;10.60;;;4.10;;
14272;SDS011;7220;49.450;11.052;2023-07-31T06:59:40;8.25;;;2.80;;
14272;SDS011;7220;49.450;11.052;2023-07-31T07:03:40;12.10;;;3.50;;
14272;SDS011;7220;49.450;11.052;2023-07-31T07:07:41;12.00;;;2.92;;
14272;SDS011;7220;49.450;11.052;2023-07-31T07:11:41;11.20;;;2.95;;
14272;SDS011;7220;49.450;11.052;2023-07-31T07:15:41;8.02;;;3.03;;
14272;SDS011;7220;49.450;11.052;2023-07-31T07:19:42;6.63;;;3.25;;
14272;SDS011;7220;49.450;11.052;2023-07-31T07:23:42;6.50;;;2.73;;
14272;SDS011;7220;49.450;11.052;2023-07-31T07:27:44;6.05;;;3.03;;
14272;SDS011;7220;49.450;11.052;2023-07-31T07:31:44;20.90;;;3.90;;
14272;SDS011;7220;49.450;11.052;2023-07-31T07:35:44;5.18;;;2.70;;
14272;SDS011;7220;49.450;11.052;2023-07-31T07:39:45;9.15;;;2.67;;
14272;SDS011;7220;49.450;11.052;2023-07-31T07:43:45;9.82;;;3.20;;
14272;SDS011;7220;49.450;11.052;2023-07-31T07:47:45;5.65;;;2.58;;
14272;SDS011;7220;49.450;11.052;2023-07-31T07:51:46;11.90;;;3.35;;
14272;SDS011;7220;49.450;11.052;2023-07-31T07:55:47;6.35;;;2.95;;
14272;SDS011;7220;49.450;11.052;2023-07-31T07:59:48;6.53;;;3.43;;
14272;SDS011;7220;49.450;11.052;2023-07-31T08:03:49;5.28;;;2.72;;
14272;SDS011;7220;49.450;11.052;2023-07-31T08:07:50;14.48;;;4.53;;
14272;SDS011;7220;49.450;11.052;2023-07-31T08:11:50;16.90;;;4.10;;
14272;SDS011;7220;49.450;11.052;2023-07-31T08:15:50;11.43;;;4.13;;
14272;SDS011;7220;49.450;11.052;2023-07-31T08:19:51;6.50;;;2.83;;
14272;SDS011;7220;49.450;11.052;2023-07-31T08:23:51;14.35;;;3.30;;
14272;SDS011;7220;49.450;11.052;2023-07-31T08:27:51;5.07;;;2.75;;
14272;SDS011;7220;49.450;11.052;2023-07-31T08:31:52;4.57;;;2.33;;
14272;SDS011;7220;49.450;11.052;2023-07-31T08:35:53;5.17;;;3.10;;
14272;SDS011;7220;49.450;11.052;2023-07-31T08:39:53;5.17;;;2.50;;
14272;SDS011;7220;49.450;11.052;2023-07-31T08:43:54;9.35;;;3.10;;
14272;SDS011;7220;49.450;11.052;2023-07-31T08:47:56;12.60;;;3.60;;
14272;SDS011;7220;49.450;11.052;2023-07-31T08:51:59;6.30;;;2.65;;
14272;SDS011;7220;49.450;11.052;2023-07-31T08:56:00;5.23;;;2.50;;
14272;SDS011;7220;49.450;11.052;2023-07-31T09:00:01;7.78;;;2.70;;
14272;SDS011;7220;49.450;11.052;2023-07-31T09:04:05;6.15;;;2.95;;
14272;SDS011;7220;49.450;11.052;2023-07-31T09:08:09;4.43;;;2.42;;
14272;SDS011;7220;49.450;11.052;2023-07-31T09:12:11;5.97;;;2.85;;
14272;SDS011;7220;49.450;11.052;2023-07-31T09:16:12;4.57;;;2.50;;
14272;SDS011;7220;49.450;11.052;2023-07-31T09:20:13;7.90;;;3.07;;
14272;SDS011;7220;49.450;11.052;2023-07-31T09:24:18;6.22;;;3.08;;
14272;SDS011;7220;49.450;11.052;2023-07-31T09:28:30;7.88;;;3.17;;
14272;SDS011;7220;49.450;11.052;2023-07-31T09:32:31;4.88;;;2.47;;
14272;SDS011;7220;49.450;11.052;2023-07-31T09:36:31;6.20;;;2.77;;
14272;SDS011;7220;49.450;11.052;2023-07-31T09:40:33;4.85;;;2.60;;
14272;SDS011;7220;49.450;11.052;2023-07-31T09:44:38;27.92;;;4.65;;
14272;SDS011;7220;49.450;11.052;2023-07-31T09:48:41;11.30;;;3.28;;
14272;SDS011;7220;49.450;11.052;2023-07-31T09:52:42;5.60;;;3.00;;
14272;SDS011;7220;49.450;11.052;2023-07-31T09:56:46;9.05;;;3.50;;
14272;SDS011;7220;49.450;11.052;2023-07-31T10:00:48;9.75;;;3.20;;
14272;SDS011;7220;49.450;11.052;2023-07-31T10:04:49;5.57;;;2.75;;
14272;SDS011;7220;49.450;11.052;2023-07-31T10:08:50;4.97;;;2.85;;
14272;SDS011;7220;49.450;11.052;2023-07-31T10:12:53;5.22;;;2.80;;
14272;SDS011;7220;49.450;11.052;2023-07-31T10:16:55;3.35;;;2.95;;
14272;SDS011;7220;49.450;11.052;2023-07-31T10:20:58;5.45;;;2.65;;
14272;SDS011;7220;49.450;11.052;2023-07-31T10:24:59;4.40;;;2.60;;
14272;SDS011;7220;49.450;11.052;2023-07-31T10:29:00;5.68;;;3.35;;
14272;SDS011;7220;49.450;11.052;2023-07-31T10:33:01;5.25;;;3.22;;
14272;SDS011;7220;49.450;11.052;2023-07-31T10:41:29;4.78;;;2.50;;
14272;SDS011;7220;49.450;11.052;2023-07-31T10:49:32;3.85;;;2.67;;
14272;SDS011;7220;49.450;11.052;2023-07-31T10:53:32;3.53;;;2.57;;
14272;SDS011;7220;49.450;11.052;2023-07-31T10:57:33;4.47;;;2.60;;
14272;SDS011;7220;49.450;11.052;2023-07-31T11:01:51;5.90;;;2.83;;
14272;SDS011;7220;49.450;11.052;2023-07-31T11:05:55;5.75;;;2.70;;
14272;SDS011;7220;49.450;11.052;2023-07-31T11:10:05;6.25;;;3.08;;
14272;SDS011;7220;49.450;11.052;2023-07-31T11:14:06;5.70;;;2.88;;
14272;SDS011;7220;49.450;11.052;2023-07-31T11:18:10;4.90;;;2.80;;
14272;SDS011;7220;49.450;11.052;2023-07-31T11:22:11;6.68;;;2.92;;
14272;SDS011;7220;49.450;11.052;2023-07-31T11:26:11;5.00;;;2.50;;
14272;SDS011;7220;49.450;11.052;2023-07-31T11:30:12;6.38;;;3.10;;
14272;SDS011;7220;49.450;11.052;2023-07-31T11:34:12;5.32;;;3.08;;
14272;SDS011;7220;49.450;11.052;2023-07-31T11:38:22;7.80;;;3.20;;
14272;SDS011;7220;49.450;11.052;2023-07-31T11:42:25;9.50;;;3.42;;
14272;SDS011;7220;49.450;11.052;2023-07-31T11:46:25;4.93;;;3.33;;
14272;SDS011;7220;49.450;11.052;2023-07-31T11:50:25;5.00;;;3.27;;
14272;SDS011;7220;49.450;11.052;2023-07-31T11:54:26;4.60;;;3.38;;
14272;SDS011;7220;49.450;11.052;2023-07-31T11:58:27;4.38;;;2.95;;
14272;SDS011;7220;49.450;11.052;2023-07-31T12:02:28;12.27;;;3.50;;
14272;SDS011;7220;49.450;11.052;2023-07-31T12:06:33;9.45;;;3.22;;
14272;SDS011;7220;49.450;11.052;2023-07-31T12:10:36;8.85;;;3.60;;
14272;SDS011;7220;49.450;11.052;2023-07-31T12:14:37;23.95;;;5.43;;
14272;SDS011;7220;49.450;11.052;2023-07-31T12:18:41;12.48;;;3.88;;
14272;SDS011;7220;49.450;11.052;2023-07-31T12:22:42;4.17;;;3.37;;
14272;SDS011;7220;49.450;11.052;2023-07-31T12:26:44;7.63;;;3.00;;
14272;SDS011;7220;49.450;11.052;2023-07-31T12:30:46;5.03;;;3.15;;
14272;SDS011;7220;49.450;11.052;2023-07-31T12:34:46;6.07;;;3.50;;
14272;SDS011;7220;49.450;11.052;2023-07-31T12:38:47;7.38;;;2.92;;
14272;SDS011;7220;49.450;11.052;2023-07-31T12:42:49;6.65;;;3.78;;
14272;SDS011;7220;49.450;11.052;2023-07-31T12:46:49;7.07;;;3.33;;
14272;SDS011;7220;49.450;11.052;2023-07-31T12:50:49;8.13;;;2.97;;
14272;SDS011;7220;49.450;11.052;2023-07-31T12:54:50;8.98;;;3.55;;
14272;SDS011;7220;49.450;11.052;2023-07-31T12:58:50;5.80;;;3.47;;
14272;SDS011;7220;49.450;11.052;2023-07-31T13:02:50;5.87;;;3.30;;
14272;SDS011;7220;49.450;11.052;2023-07-31T13:06:51;5.78;;;3.25;;
14272;SDS011;7220;49.450;11.052;2023-07-31T13:10:51;4.50;;;3.30;;
14272;SDS011;7220;49.450;11.052;2023-07-31T13:14:52;4.28;;;2.97;;
14272;SDS011;7220;49.450;11.052;2023-07-31T13:18:52;6.95;;;3.50;;
14272;SDS011;7220;49.450;11.052;2023-07-31T13:22:53;4.78;;;3.30;;
14272;SDS011;7220;49.450;11.052;2023-07-31T13:26:53;5.00;;;3.20;;
14272;SDS011;7220;49.450;11.052;2023-07-31T13:30:55;7.28;;;2.92;;
14272;SDS011;7220;49.450;11.052;2023-07-31T13:34:55;4.00;;;2.90;;
14272;SDS011;7220;49.450;11.052;2023-07-31T13:38:55;6.70;;;2.88;;
14272;SDS011;7220;49.450;11.052;2023-07-31T13:42:56;4.30;;;3.60;;
14272;SDS011;7220;49.450;11.052;2023-07-31T13:46:56;9.00;;;3.43;;
14272;SDS011;7220;49.450;11.052;2023-07-31T13:50:56;5.10;;;3.47;;
14272;SDS011;7220;49.450;11.052;2023-07-31T13:54:57;3.77;;;3.00;;
14272;SDS011;7220;49.450;11.052;2023-07-31T13:58:57;6.40;;;3.23;;
14272;SDS011;7220;49.450;11.052;2023-07-31T14:02:57;3.50;;;3.03;;
14272;SDS011;7220;49.450;11.052;2023-07-31T14:06:58;6.43;;;3.10;;
14272;SDS011;7220;49.450;11.052;2023-07-31T14:10:58;4.13;;;3.00;;
14272;SDS011;7220;49.450;11.052;2023-07-31T14:14:59;6.15;;;3.08;;
14272;SDS011;7220;49.450;11.052;2023-07-31T14:18:59;5.73;;;3.40;;
14272;SDS011;7220;49.450;11.052;2023-07-31T14:22:59;5.55;;;3.30;;
14272;SDS011;7220;49.450;11.052;2023-07-31T14:27:00;7.28;;;3.42;;
14272;SDS011;7220;49.450;11.052;2023-07-31T14:31:01;5.65;;;3.72;;
14272;SDS011;7220;49.450;11.052;2023-07-31T14:35:01;5.83;;;3.13;;
14272;SDS011;7220;49.450;11.052;2023-07-31T14:39:01;6.80;;;2.97;;
14272;SDS011;7220;49.450;11.052;2023-07-31T14:43:02;7.03;;;3.40;;
14272;SDS011;7220;49.450;11.052;2023-07-31T14:47:02;4.90;;;3.25;;
14272;SDS011;7220;49.450;11.052;2023-07-31T14:51:02;6.70;;;3.30;;
14272;SDS011;7220;49.450;11.052;2023-07-31T14:55:03;5.90;;;3.13;;
14272;SDS011;7220;49.450;11.052;2023-07-31T14:59:03;6.25;;;3.60;;
14272;SDS011;7220;49.450;11.052;2023-07-31T15:03:04;4.53;;;3.00;;
14272;SDS011;7220;49.450;11.052;2023-07-31T15:07:04;6.78;;;3.45;;
14272;SDS011;7220;49.450;11.052;2023-07-31T15:11:05;4.75;;;3.35;;
14272;SDS011;7220;49.450;11.052;2023-07-31T15:15:06;6.85;;;3.88;;
14272;SDS011;7220;49.450;11.052;2023-07-31T15:19:06;7.40;;;3.10;;
14272;SDS011;7220;49.450;11.052;2023-07-31T15:23:07;6.57;;;3.80;;
14272;SDS011;7220;49.450;11.052;2023-07-31T15:27:07;5.25;;;3.08;;
14272;SDS011;7220;49.450;11.052;2023-07-31T15:31:08;5.35;;;2.85;;
14272;SDS011;7220;49.450;11.052;2023-07-31T15:35:09;8.23;;;3.50;;
14272;SDS011;7220;49.450;11.052;2023-07-31T15:39:12;4.65;;;2.80;;
14272;SDS011;7220;49.450;11.052;2023-07-31T15:43:13;7.05;;;3.25;;
14272;SDS011;7220;49.450;11.052;2023-07-31T15:47:13;6.45;;;3.88;;
14272;SDS011;7220;49.450;11.052;2023-07-31T15:51:13;9.18;;;3.80;;
14272;SDS011;7220;49.450;11.052;2023-07-31T15:55:14;9.20;;;4.10;;
14272;SDS011;7220;49.450;11.052;2023-07-31T15:59:17;5.13;;;3.30;;
14272;SDS011;7220;49.450;11.052;2023-07-31T16:03:18;5.75;;;3.53;;
14272;SDS011;7220;49.450;11.052;2023-07-31T16:07:19;5.25;;;3.58;;
14272;SDS011;7220;49.450;11.052;2023-07-31T16:11:21;6.85;;;3.95;;
14272;SDS011;7220;49.450;11.052;2023-07-31T16:15:21;4.40;;;3.45;;
14272;SDS011;7220;49.450;11.052;2023-07-31T16:19:22;5.75;;;2.92;;
14272;SDS011;7220;49.450;11.052;2023-07-31T16:23:22;7.82;;;3.67;;
14272;SDS011;7220;49.450;11.052;2023-07-31T16:27:22;3.73;;;2.77;;
14272;SDS011;7220;49.450;11.052;2023-07-31T16:31:24;6.88;;;3.60;;
14272;SDS011;7220;49.450;11.052;2023-07-31T16:35:25;5.88;;;3.25;;
14272;SDS011;7220;49.450;11.052;2023-07-31T16:39:25;6.25;;;3.90;;
14272;SDS011;7220;49.450;11.052;2023-07-31T16:43:26;5.05;;;3.28;;
14272;SDS011;7220;49.450;11.052;2023-07-31T16:47:29;3.72;;;3.30;;
14272;SDS011;7220;49.450;11.052;2023-07-31T16:51:29;4.53;;;3.40;;
14272;SDS011;7220;49.450;11.052;2023-07-31T16:55:30;6.35;;;3.33;;
14272;SDS011;7220;49.450;11.052;2023-07-31T16:59:33;9.35;;;4.32;;
14272;SDS011;7220;49.450;11.052;2023-07-31T17:03:34;4.78;;;3.47;;
14272;SDS011;7220;49.450;11.052;2023-07-31T17:07:34;5.57;;;3.17;;
14272;SDS011;7220;49.450;11.052;2023-07-31T17:11:35;4.33;;;3.10;;
14272;SDS011;7220;49.450;11.052;2023-07-31T17:15:35;6.53;;;3.10;;
14272;SDS011;7220;49.450;11.052;2023-07-31T17:19:35;7.23;;;3.30;;
14272;SDS011;7220;49.450;11.052;2023-07-31T17:23:36;4.50;;;3.43;;
14272;SDS011;7220;49.450;11.052;2023-07-31T17:27:36;4.82;;;3.40;;
14272;SDS011;7220;49.450;11.052;2023-07-31T17:31:36;5.50;;;3.27;;
14272;SDS011;7220;49.450;11.052;2023-07-31T17:35:38;6.00;;;3.50;;
14272;SDS011;7220;49.450;11.052;2023-07-31T17:39:39;5.87;;;3.23;;
14272;SDS011;7220;49.450;11.052;2023-07-31T17:43:39;6.13;;;3.37;;
14272;SDS011;7220;49.450;11.052;2023-07-31T17:47:39;4.83;;;3.43;;
14272;SDS011;7220;49.450;11.052;2023-07-31T17:51:40;6.05;;;3.85;;
14272;SDS011;7220;49.450;11.052;2023-07-31T17:55:40;5.60;;;3.78;;
14272;SDS011;7220;49.450;11.052;2023-07-31T17:59:40;4.73;;;3.60;;
14272;SDS011;7220;49.450;11.052;2023-07-31T18:03:43;4.95;;;3.30;;
14272;SDS011;7220;49.450;11.052;2023-07-31T18:07:43;7.67;;;3.37;;
14272;SDS011;7220;49.450;11.052;2023-07-31T18:11:43;5.80;;;3.73;;
14272;SDS011;7220;49.450;11.052;2023-07-31T18:15:47;5.50;;;3.50;;
14272;SDS011;7220;49.450;11.052;2023-07-31T18:19:47;5.30;;;3.85;;
14272;SDS011;7220;49.450;11.052;2023-07-31T18:23:47;7.47;;;3.17;;
14272;SDS011;7220;49.450;11.052;2023-07-31T18:27:48;7.10;;;3.20;;
14272;SDS011;7220;49.450;11.052;2023-07-31T18:31:48;8.60;;;3.70;;
14272;SDS011;7220;49.450;11.052;2023-07-31T18:35:48;5.45;;;3.30;;
14272;SDS011;7220;49.450;11.052;2023-07-31T18:39:49;4.97;;;3.40;;
14272;SDS011;7220;49.450;11.052;2023-07-31T18:43:49;4.00;;;3.10;;
14272;SDS011;7220;49.450;11.052;2023-07-31T18:47:49;7.50;;;3.53;;
14272;SDS011;7220;49.450;11.052;2023-07-31T18:51:49;4.00;;;2.97;;
14272;SDS011;7220;49.450;11.052;2023-07-31T18:55:50;5.28;;;3.60;;
14272;SDS011;7220;49.450;11.052;2023-07-31T18:59:51;5.22;;;3.90;;
14272;SDS011;7220;49.450;11.052;2023-07-31T19:03:51;6.33;;;3.37;;
14272;SDS011;7220;49.450;11.052;2023-07-31T19:07:52;4.38;;;3.45;;
14272;SDS011;7220;49.450;11.052;2023-07-31T19:11:52;7.13;;;3.87;;
14272;SDS011;7220;49.450;11.052;2023-07-31T19:15:52;6.03;;;3.40;;
14272;SDS011;7220;49.450;11.052;2023-07-31T19:19:53;5.88;;;3.58;;
14272;SDS011;7220;49.450;11.052;2023-07-31T19:23:54;7.13;;;3.75;;
14272;SDS011;7220;49.450;11.052;2023-07-31T19:27:54;5.93;;;3.37;;
14272;SDS011;7220;49.450;11.052;2023-07-31T19:31:55;6.60;;;3.87;;
14272;SDS011;7220;49.450;11.052;2023-07-31T19:35:59;7.00;;;3.97;;
14272;SDS011;7220;49.450;11.052;2023-07-31T19:40:00;7.43;;;3.97;;
14272;SDS011;7220;49.450;11.052;2023-07-31T19:44:00;6.17;;;3.93;;
14272;SDS011;7220;49.450;11.052;2023-07-31T19:48:00;6.17;;;4.03;;
14272;SDS011;7220;49.450;11.052;2023-07-31T19:52:00;5.17;;;4.03;;
14272;SDS011;7220;49.450;11.052;2023-07-31T19:56:01;5.15;;;3.30;;
14272;SDS011;7220;49.450;11.052;2023-07-31T20:00:03;7.03;;;3.70;;
14272;SDS011;7220;49.450;11.052;2023-07-31T20:04:04;5.53;;;3.45;;
14272;SDS011;7220;49.450;11.052;2023-07-31T20:08:04;3.63;;;3.07;;
14272;SDS011;7220;49.450;11.052;2023-07-31T20:12:05;5.13;;;3.80;;
14272;SDS011;7220;49.450;11.052;2023-07-31T20:16:06;6.20;;;3.67;;
14272;SDS011;7220;49.450;11.052;2023-07-31T20:20:06;6.03;;;3.83;;
14272;SDS011;7220;49.450;11.052;2023-07-31T20:24:08;6.95;;;3.90;;
14272;SDS011;7220;49.450;11.052;2023-07-31T20:28:09;4.97;;;3.55;;
14272;SDS011;7220;49.450;11.052;2023-07-31T20:32:09;6.47;;;4.23;;
14272;SDS011;7220;49.450;11.052;2023-07-31T20:36:10;7.97;;;4.23;;
14272;SDS011;7220;49.450;11.052;2023-07-31T20:40:10;5.60;;;3.63;;
14272;SDS011;7220;49.450;11.052;2023-07-31T20:44:11;6.13;;;3.85;;
14272;SDS011;7220;49.450;11.052;2023-07-31T20:48:11;5.57;;;3.90;;
14272;SDS011;7220;49.450;11.052;2023-07-31T20:52:13;6.70;;;3.72;;
14272;SDS011;7220;49.450;11.052;2023-07-31T20:56:13;6.97;;;3.93;;
14272;SDS011;7220;49.450;11.052;2023-07-31T21:00:13;6.07;;;4.13;;
14272;SDS011;7220;49.450;11.052;2023-07-31T21:04:14;6.65;;;4.55;;
14272;SDS011;7220;49.450;11.052;2023-07-31T21:08:15;7.10;;;4.40;;
14272;SDS011;7220;49.450;11.052;2023-07-31T21:12:15;6.37;;;4.07;;
14272;SDS011;7220;49.450;11.052;2023-07-31T21:16:15;4.93;;;4.07;;
14272;SDS011;7220;49.450;11.052;2023-07-31T21:20:16;5.88;;;3.85;;
14272;SDS011;7220;49.450;11.052;2023-07-31T21:24:16;7.28;;;4.50;;
14272;SDS011;7220;49.450;11.052;2023-07-31T21:28:16;7.80;;;4.83;;
14272;SDS011;7220;49.450;11.052;2023-07-31T21:32:17;6.25;;;4.07;;
14272;SDS011;7220;49.450;11.052;2023-07-31T21:36:17;7.15;;;4.22;;
14272;SDS011;7220;49.450;11.052;2023-07-31T21:40:17;5.13;;;4.20;;
14272;SDS011;7220;49.450;11.052;2023-07-31T21:44:18;5.57;;;4.07;;
14272;SDS011;7220;49.450;11.052;2023-07-31T21:48:18;5.85;;;4.63;;
14272;SDS011;7220;49.450;11.052;2023-07-31T21:52:18;5.07;;;4.55;;
14272;SDS011;7220;49.450;11.052;2023-07-31T21:56:19;4.25;;;3.83;;
14272;SDS011;7220;49.450;11.052;2023-07-31T22:00:20;4.57;;;4.05;;
14272;SDS011;7220;49.450;11.052;2023-07-31T22:04:21;7.05;;;4.55;;
14272;SDS011;7220;49.450;11.052;2023-07-31T22:08:21;7.30;;;4.43;;
14272;SDS011;7220;49.450;11.052;2023-07-31T22:12:22;6.20;;;5.00;;
14272;SDS011;7220;49.450;11.052;2023-07-31T22:16:22;5.53;;;4.93;;
14272;SDS011;7220;49.450;11.052;2023-07-31T22:20:22;5.73;;;4.53;;
14272;SDS011;7220;49.450;11.052;2023-07-31T22:24:23;6.43;;;4.88;;
14272;SDS011;7220;49.450;11.052;2023-07-31T22:28:23;6.45;;;5.13;;
14272;SDS011;7220;49.450;11.052;2023-07-31T22:32:23;7.35;;;5.43;;
14272;SDS011;7220;49.450;11.052;2023-07-31T22:36:24;7.10;;;5.53;;
14272;SDS011;7220;49.450;11.052;2023-07-31T22:40:24;7.93;;;6.17;;
14272;SDS011;7220;49.450;11.052;2023-07-31T22:44:24;10.47;;;6.73;;
14272;SDS011;7220;49.450;11.052;2023-07-31T22:48:25;10.57;;;7.10;;
14272;SDS011;7220;49.450;11.052;2023-07-31T22:52:25;8.93;;;6.33;;
14272;SDS011;7220;49.450;11.052;2023-07-31T22:56:25;10.23;;;7.00;;
14272;SDS011;7220;49.450;11.052;2023-07-31T23:00:26;7.97;;;6.30;;
14272;SDS011;7220;49.450;11.052;2023-07-31T23:04:26;7.27;;;6.20;;
14272;SDS011;7220;49.450;11.052;2023-07-31T23:08:26;8.60;;;6.13;;
14272;SDS011;7220;49.450;11.052;2023-07-31T23:12:27;7.93;;;6.20;;
14272;SDS011;7220;49.450;11.052;2023-07-31T23:16:27;10.20;;;6.35;;
14272;SDS011;7220;49.450;11.052;2023-07-31T23:20:28;8.73;;;6.32;;
14272;SDS011;7220;49.450;11.052;2023-07-31T23:24:28;7.37;;;6.30;;
14272;SDS011;7220;49.450;11.052;2023-07-31T23:28:28;7.77;;;5.67;;
14272;SDS011;7220;49.450;11.052;2023-07-31T23:32:28;10.40;;;6.60;;
14272;SDS011;7220;49.450;11.052;2023-07-31T23:36:29;9.13;;;5.82;;
14272;SDS011;7220;49.450;11.052;2023-07-31T23:40:29;6.50;;;5.47;;
14272;SDS011;7220;49.450;11.052;2023-07-31T23:44:30;7.13;;;5.22;;
14272;SDS011;7220;49.450;11.052;2023-07-31T23:48:30;7.28;;;5.30;;
14272;SDS011;7220;49.450;11.052;2023-07-31T23:52:30;6.37;;;4.83;;
14272;SDS011;7220;49.450;11.052;2023-07-31T23:56:32;5.97;;;5.22;;
